Data for 03/27/2014

Time Sea-Level Adjusted Pressure Absolute Pressure Temperature Relative Humidity Dew Point   
(mb) (inHg) (mb) (inHg) (C) (F) (%) (C) (F)
00:05 1005 29.68 834 24.63 -0 31.9 87 -2 28.5
00:10 1005 29.68 834 24.63 0 32 87 -1.9 28.6
00:15 1005 29.68 834 24.63 -0.1 31.8 87 -1.9 28.5
00:20 1005 29.68 834 24.63 -0.3 31.5 88 -2 28.4
00:25 1005 29.68 834 24.63 -0.4 31.3 89 -2 28.5
00:30 1005 29.68 834 24.63 -0.4 31.3 89 -1.9 28.5
00:35 1005 29.68 834 24.63 -0.4 31.2 90 -1.9 28.5
00:40 1005 29.68 834 24.63 -0.5 31.1 89 -2.1 28.3
00:45 1005 29.68 834 24.63 -0.5 31 89 -2.2 28.1
00:50 1005 29.68 834 24.63 -0.5 31 89 -2.1 28.2
00:55 1005 29.68 834 24.63 -0.6 30.9 90 -2.1 28.2
01:00 1005 29.68 834 24.63 -0.7 30.8 90 -2.1 28.2
01:05 1005 29.68 834 24.63 -0.7 30.8 90 -2.1 28.2
01:10 1005 29.68 834 24.63 -0.6 30.9 89 -2.2 28.1
01:15 1005 29.68 834 24.63 -0.8 30.5 90 -2.3 27.8
01:20 1005 29.68 834 24.63 -1 30.3 91 -2.3 27.8
01:25 1005 29.68 834 24.63 -0.8 30.5 90 -2.3 27.9
01:30 1005 29.68 834 24.63 -0.9 30.4 90 -2.4 27.7
01:35 1005 29.68 834 24.63 -0.9 30.3 90 -2.4 27.7
01:40 1005 29.68 834 24.63 -1 30.3 90 -2.4 27.7
01:45 1005 29.68 834 24.63 -0.9 30.3 90 -2.4 27.7
01:50 1005 29.68 834 24.63 -0.9 30.4 90 -2.4 27.7
01:55 1005 29.68 834 24.63 -0.9 30.3 90 -2.4 27.7
02:00 1005 29.68 834 24.63 -0.9 30.4 89 -2.5 27.5
02:05 1005 29.68 834 24.63 -0.9 30.5 88 -2.5 27.4
02:10 1005 29.68 834 24.63 -1 30.2 89 -2.6 27.4
02:15 1005 29.68 834 24.63 -1.1 30 89 -2.6 27.3
02:20 1005 29.68 834 24.63 -1 30.2 89 -2.6 27.3
02:25 1005 29.68 834 24.63 -1 30.2 89 -2.6 27.3
02:30 1005 29.68 834 24.63 -1.1 30.1 88 -2.7 27.1
02:35 1005 29.68 834 24.63 -1.2 29.9 89 -2.8 27
02:40 1005 29.68 834 24.63 -1.2 29.9 89 -2.8 27
02:45 1005 29.68 834 24.63 -1.2 29.9 89 -2.8 26.9
02:50 1005 29.68 834 24.63 -1.1 30 88 -2.9 26.8
02:55 1005 29.68 834 24.63 -1 30.2 88 -2.8 27
03:00 1005 29.68 834 24.63 -1 30.3 87 -2.8 27
03:05 1005 29.68 834 24.63 -1 30.2 88 -2.8 27
03:10 1005 29.68 834 24.63 -1.1 30 88 -2.9 26.8
03:15 1005 29.68 834 24.63 -1.2 29.8 88 -3 26.7
03:20 1005 29.68 834 24.63 -1.4 29.5 89 -3 26.6
03:25 1005 29.68 834 24.63 -1.6 29.2 89 -3.2 26.2
03:30 1005 29.68 834 24.63 -1.9 28.6 90 -3.3 26
03:35 1005 29.68 834 24.63 -1.8 28.7 90 -3.3 26.1
03:40 1005 29.68 834 24.63 -1.7 28.9 89 -3.3 26.1
03:45 1005 29.68 834 24.63 -1.7 29 89 -3.3 26
03:50 1005 29.68 834 24.63 -2.1 28.3 89 -3.6 25.5
03:55 1005 29.68 834 24.63 -2.5 27.4 88 -4.2 24.4
04:00 1005 29.68 834 24.63 -2.7 27.1 91 -4.1 24.7
04:05 1005 29.68 834 24.63 -2.3 27.9 91 -3.5 25.7
04:10 1005 29.68 834 24.63 -2 28.5 89 -3.5 25.7
04:15 1005 29.68 834 24.63 -2 28.3 90 -3.5 25.6
04:20 1005 29.68 834 24.63 -2 28.3 89 -3.6 25.6
04:25 1005 29.68 834 24.63 -2.1 28.2 88 -3.8 25.2
04:30 1005 29.68 834 24.63 -2.4 27.7 89 -4 24.8
04:35 1005 29.68 834 24.63 -2.6 27.3 90 -4 24.8
04:40 1005 29.68 834 24.63 -2.5 27.4 91 -3.8 25.1
04:45 1005 29.68 834 24.63 -2.4 27.7 90 -3.8 25.2
04:50 1005 29.68 834 24.63 -2.4 27.7 90 -3.7 25.3
04:55 1005 29.68 834 24.63 -2.4 27.7 91 -3.7 25.3
05:00 1005 29.68 834 24.63 -2.4 27.7 91 -3.7 25.3
05:05 1005 29.68 834 24.63 -2.3 27.8 91 -3.7 25.4
05:10 1005 29.68 834 24.63 -2.2 28 90 -3.6 25.5
05:15 1005 29.68 834 24.63 -2.2 28.1 90 -3.6 25.6
05:20 1005 29.68 834 24.63 -2.2 28 90 -3.6 25.5
05:25 1005 29.68 834 24.63 -2.2 28 90 -3.7 25.4
05:30 1005 29.68 834 24.63 -2.3 27.9 90 -3.7 25.3
05:35 1005 29.68 834 24.63 -2.5 27.4 90 -3.9 25
05:40 1005 29.68 834 24.63 -2.5 27.4 90 -4 24.9
05:45 1005 29.68 834 24.63 -2.6 27.4 90 -4 24.9
05:50 1005 29.68 834 24.63 -2.5 27.5 90 -4 24.9
05:55 1005 29.68 834 24.63 -2.3 27.8 89 -3.9 25
06:00 1005 29.68 834 24.63 -2.3 27.9 89 -3.9 25
06:05 1005 29.68 834 24.63 -2.5 27.5 89 -4.1 24.7
06:10 1005 29.68 834 24.63 -2.6 27.3 89 -4.1 24.6
06:15 1005 29.68 834 24.63 -2.7 27.1 90 -4.2 24.5
06:20 1005 29.68 834 24.63 -2.7 27.1 90 -4.2 24.4
06:25 1005 29.68 834 24.63 -2.7 27.2 89 -4.2 24.4
06:30 1005 29.68 834 24.63 -2.6 27.3 89 -4.2 24.5
06:35 1005 29.68 834 24.63 -2.5 27.5 89 -4.1 24.7
06:40 1005 29.68 834 24.63 -2.4 27.6 89 -4 24.7
06:45 1005 29.68 834 24.63 -2.4 27.7 89 -4 24.7
06:50 1005 29.68 834 24.63 -2.3 27.9 88 -4 24.8
06:55 1005 29.68 834 24.63 -2.2 28.1 88 -3.9 24.9
07:00 1005 29.68 834 24.63 -2 28.3 87 -3.9 25
07:05 1005 29.68 834 24.63 -1.9 28.6 87 -3.7 25.3
07:10 1005 29.68 834 24.63 -1.7 29 86 -3.7 25.4
07:15 1005 29.68 834 24.63 -1.5 29.3 86 -3.6 25.6
07:20 1005 29.68 834 24.63 -1.5 29.3 86 -3.6 25.5
07:25 1005 29.68 834 24.63 -1.6 29.2 86 -3.7 25.4
07:30 1005 29.68 834 24.63 -1.5 29.3 85 -3.7 25.3
07:35 1005 29.68 834 24.63 -1.4 29.5 85 -3.6 25.4
07:40 1005 29.68 834 24.63 -1.2 29.8 84 -3.6 25.5
07:45 1005 29.68 834 24.63 -1 30.1 83 -3.5 25.7
07:50 1005 29.68 834 24.63 -0.8 30.5 82 -3.5 25.8
07:55 1005 29.68 834 24.63 -0.5 31.1 80 -3.5 25.7
08:00 1005 29.68 834 24.63 -0.3 31.4 81 -3.2 26.2
08:05 1005 29.68 834 24.63 -0.3 31.5 80 -3.3 26
08:10 1005 29.68 834 24.63 -0.3 31.4 81 -3.2 26.2
08:15 1005 29.68 834 24.63 -0.3 31.5 80 -3.3 26.1
08:20 1005 29.68 834 24.63 -0.1 31.9 79 -3.3 26
08:25 1005 29.68 834 24.63 0.1 32.2 79 -3.1 26.4
08:30 1005 29.68 834 24.63 0.2 32.4 78 -3.2 26.3
08:35 1005 29.68 834 24.63 0.7 33.2 76 -3.1 26.5
08:40 1005 29.68 834 24.63 0.8 33.4 77 -2.8 27
08:45 1005 29.68 834 24.63 0.8 33.5 76 -2.9 26.7
08:50 1005 29.68 834 24.63 0.8 33.5 77 -2.7 27.1
08:55 1005 29.68 834 24.63 0.6 33.1 78 -2.8 26.9
09:00 1005 29.68 834 24.63 0.7 33.2 77 -2.9 26.7
09:05 1005 29.68 834 24.63 0.7 33.3 77 -2.9 26.8
09:10 1005 29.68 834 24.63 0.7 33.2 77 -3 26.6
09:15 1005 29.68 834 24.63 0.7 33.3 77 -2.8 26.9
09:20 1005 29.68 834 24.63 0.8 33.5 77 -2.7 27.2
09:25 1005 29.68 834 24.63 1 33.7 76 -2.8 27
09:30 1005 29.68 834 24.63 1.2 34.2 74 -2.8 26.9
09:35 1005 29.68 834 24.63 1.5 34.7 73 -2.9 26.8
09:40 1005 29.68 834 24.63 1.6 34.9 72 -2.9 26.8
09:45 1005 29.68 834 24.63 1.7 35.1 73 -2.5 27.4
09:50 1005 29.68 834 24.63 1.9 35.5 72 -2.6 27.3
09:55 1005 29.68 834 24.63 1.9 35.4 73 -2.4 27.7
10:00 1005 29.68 834 24.63 2 35.6 75 -1.9 28.6
10:05 1005 29.68 834 24.63 2.2 36 76 -1.6 29.2
10:10 1005 29.68 834 24.63 2.2 36 76 -1.6 29.2
10:15 1005 29.68 834 24.63 2.5 36.5 74 -1.7 29
10:20 1005 29.68 834 24.63 2.6 36.6 75 -1.5 29.3
10:25 1005 29.68 834 24.63 2.4 36.3 75 -1.5 29.2
10:30 1005 29.68 834 24.63 2.5 36.5 75 -1.5 29.4
10:35 1005 29.68 834 24.63 2.3 36.1 74 -1.9 28.6
10:40 1005 29.68 834 24.63 2.1 35.8 75 -1.8 28.7
10:45 1005 29.68 834 24.63 1.5 34.7 79 -1.8 28.8
10:50 1005 29.68 834 24.63 1.6 34.9 78 -1.9 28.6
10:55 1005 29.68 834 24.63 1.9 35.4 77 -1.7 28.9
11:00 1005 29.68 834 24.63 2 35.6 75 -1.9 28.5
11:05 1005 29.68 834 24.63 2.2 36 74 -2 28.5
11:10 1005 29.68 834 24.63 2.5 36.6 73 -1.8 28.8
11:15 1005 29.68 834 24.63 3.4 38.2 67 -2.1 28.2
11:20 1005 29.68 834 24.63 3.3 37.9 69 -1.9 28.6
11:25 1005 29.68 834 24.63 3.2 37.8 69 -1.9 28.5
11:30 1005 29.68 834 24.63 3.1 37.7 71 -1.6 29.1
11:35 1005 29.68 834 24.63 2.6 36.6 74 -1.6 29
11:40 1005 29.68 834 24.63 2.3 36.2 74 -1.8 28.7
11:45 1005 29.68 834 24.63 2.3 36.2 76 -1.5 29.2
11:50 1005 29.68 834 24.63 2.5 36.5 76 -1.4 29.5
11:55 1005 29.68 834 24.63 2.5 36.6 76 -1.3 29.6
12:00 1005 29.68 834 24.63 2.6 36.6 75 -1.4 29.5
12:05 1005 29.68 834 24.63 2.6 36.6 75 -1.4 29.6
12:10 1005 29.68 834 24.63 2.6 36.7 75 -1.4 29.4
12:15 1005 29.68 834 24.63 2.6 36.7 76 -1.2 29.8
12:20 1005 29.68 835 24.66 2.6 36.8 74 -1.6 29.1
12:25 1005 29.68 835 24.66 2.6 36.7 75 -1.4 29.5
12:30 1005 29.68 835 24.66 3 37.5 74 -1.2 29.8
12:35 1006 29.71 835 24.66 3 37.3 72 -1.6 29.2
12:40 1006 29.71 835 24.66 3.6 38.4 74 -0.6 31
12:45 1006 29.71 835 24.66 4 39.2 73 -0.4 31.3
12:50 1006 29.71 835 24.66 4.1 39.3 73 -0.4 31.3
12:55 1006 29.71 835 24.66 3.9 39 71 -0.8 30.5
13:00 1006 29.71 835 24.66 3 37.3 77 -0.6 30.9
13:05 1006 29.71 835 24.66 3 37.4 79 -0.3 31.4
13:10 1006 29.71 835 24.66 2.6 36.6 84 0.1 32.2
13:15 1006 29.71 835 24.66 1.8 35.3 85 -0.4 31.2
13:20 1006 29.71 835 24.66 1.6 34.9 87 -0.4 31.3
13:25 1006 29.71 835 24.66 1.8 35.3 87 -0.1 31.8
13:30 1006 29.71 835 24.66 1.8 35.2 86 -0.4 31.3
13:35 1006 29.71 835 24.66 1.4 34.5 89 -0.3 31.5
13:40 1006 29.71 835 24.66 1.4 34.5 85 -0.8 30.5
13:45 1006 29.71 835 24.66 1.4 34.6 84 -1 30.1
13:50 1006 29.71 835 24.66 1.7 35 81 -1.2 29.9
13:55 1006 29.71 835 24.66 1.9 35.5 80 -1.1 29.9
14:00 1006 29.71 835 24.66 1.7 35.1 80 -1.3 29.6
14:05 1005 29.68 835 24.66 2.1 35.8 77 -1.6 29.2
14:10 1006 29.71 835 24.66 2.4 36.3 76 -1.5 29.3
14:15 1006 29.71 835 24.66 2.3 36.2 77 -1.4 29.5
14:20 1006 29.71 835 24.66 2.5 36.5 75 -1.5 29.3
14:25 1006 29.71 835 24.66 2.7 36.8 75 -1.2 29.8
14:30 1006 29.71 835 24.66 2.8 37.1 76 -1 30.2
14:35 1006 29.71 835 24.66 3.1 37.6 74 -1.1 30
14:40 1006 29.71 835 24.66 3.3 38 73 -1 30.2
14:45 1006 29.71 835 24.66 3.5 38.2 73 -1 30.2
14:50 1006 29.71 835 24.66 3.5 38.2 73 -1 30.2
14:55 1006 29.71 835 24.66 3.4 38.1 73 -1 30.3
15:00 1006 29.71 836 24.69 3.2 37.7 76 -0.6 30.8
15:05 1007 29.74 836 24.69 2 35.6 87 0 32.1
15:10 1007 29.74 836 24.69 0.8 33.4 90 -0.6 30.9
15:15 1007 29.74 836 24.69 0.4 32.7 93 -0.7 30.8
15:20 1007 29.74 836 24.69 0.2 32.3 94 -0.8 30.6
15:25 1007 29.74 836 24.69 0 32.1 95 -0.7 30.7
15:30 1007 29.74 836 24.69 -0 32 95 -0.8 30.6
15:35 1007 29.74 836 24.69 -0.3 31.5 95 -1 30.2
15:40 1007 29.74 836 24.69 -0.5 31.1 95 -1.1 30
15:45 1007 29.74 837 24.72 -0.5 31.1 96 -1.1 30
15:50 1008 29.77 837 24.72 -0.4 31.2 96 -1 30.2
15:55 1008 29.77 837 24.72 -0.4 31.3 96 -1 30.3
16:00 1008 29.77 837 24.72 -0.4 31.3 96 -1 30.2
16:05 1008 29.77 837 24.72 -0.5 31.1 95 -1.2 29.9
16:10 1008 29.77 837 24.72 -0.7 30.8 96 -1.3 29.7
16:15 1008 29.77 837 24.72 -0.6 30.9 96 -1.2 29.9
16:20 1008 29.77 837 24.72 -0.4 31.2 96 -1 30.2
16:25 1008 29.77 837 24.72 -0.4 31.2 96 -1 30.2
16:30 1008 29.77 837 24.72 -0.4 31.3 96 -1 30.1
16:35 1008 29.77 837 24.72 -0.4 31.3 95 -1.1 30
16:40 1008 29.77 837 24.72 -0.4 31.3 94 -1.2 29.8
16:45 1008 29.77 837 24.72 -0.3 31.4 93 -1.4 29.6
16:50 1008 29.77 837 24.72 -0.3 31.5 92 -1.5 29.4
16:55 1008 29.77 837 24.72 -0.3 31.5 92 -1.5 29.4
17:00 1008 29.77 837 24.72 -0.3 31.5 92 -1.5 29.3
17:05 1008 29.77 837 24.72 -0.3 31.5 91 -1.6 29.2
17:10 1008 29.77 837 24.72 -0.2 31.6 90 -1.6 29
17:15 1008 29.77 837 24.72 -0 32 90 -1.5 29.4
17:20 1008 29.77 838 24.75 0.1 32.2 91 -1.2 29.9
17:25 1008 29.77 838 24.75 0.2 32.4 89 -1.4 29.6
17:30 1008 29.77 838 24.75 0.2 32.4 90 -1.2 29.8
17:35 1009 29.8 838 24.75 0.3 32.5 91 -1 30.2
17:40 1009 29.8 838 24.75 0.3 32.5 90 -1.2 29.8
17:45 1009 29.8 838 24.75 0.3 32.5 91 -1 30.3
17:50 1009 29.8 838 24.75 0.2 32.4 92 -0.9 30.4
17:55 1009 29.8 838 24.75 0.2 32.3 93 -0.8 30.5
18:00 1009 29.8 838 24.75 0.1 32.2 94 -0.8 30.6
18:05 1009 29.8 838 24.75 0.1 32.2 94 -0.8 30.6
18:10 1009 29.8 838 24.75 0.1 32.2 94 -0.8 30.6
18:15 1009 29.8 838 24.75 -0 31.9 94 -0.9 30.4
18:20 1009 29.8 838 24.75 -0 31.9 94 -0.9 30.5
18:25 1009 29.8 838 24.75 -0 31.9 95 -0.8 30.6
18:30 1009 29.8 838 24.75 -0.1 31.8 95 -0.9 30.5
18:35 1009 29.8 838 24.75 -0.2 31.7 95 -0.9 30.4
18:40 1009 29.8 838 24.75 -0.2 31.6 95 -0.9 30.4
18:45 1009 29.8 838 24.75 -0.3 31.5 95 -1 30.3
18:50 1009 29.8 838 24.75 -0.3 31.5 95 -1 30.2
18:55 1009 29.8 838 24.75 -0.4 31.3 95 -1.1 30.1
19:00 1009 29.8 838 24.75 -0.5 31.1 95 -1.2 29.9
19:05 1009 29.8 838 24.75 -0.6 30.9 95 -1.2 29.8
19:10 1009 29.8 838 24.75 -0.7 30.8 95 -1.4 29.6
19:15 1009 29.8 839 24.78 -0.8 30.6 95 -1.4 29.4
19:20 1009 29.8 839 24.78 -0.8 30.5 95 -1.5 29.3
19:25 1009 29.8 839 24.78 -0.9 30.4 95 -1.6 29.2
19:30 1009 29.8 839 24.78 -1 30.3 95 -1.7 28.9
19:35 1009 29.8 839 24.78 -1 30.2 95 -1.7 28.9
19:40 1010 29.83 839 24.78 -1 30.1 94 -1.9 28.7
19:45 1010 29.83 839 24.78 -1.1 30.1 94 -1.9 28.6
19:50 1010 29.83 839 24.78 -1.1 30.1 94 -1.9 28.6
19:55 1010 29.83 839 24.78 -1.1 30 94 -2 28.5
20:00 1010 29.83 839 24.78 -1.1 30 94 -2 28.5
20:05 1010 29.83 839 24.78 -1.1 30 94 -1.9 28.5
20:10 1010 29.83 839 24.78 -1.2 29.9 94 -2 28.4
20:15 1010 29.83 839 24.78 -1.2 29.8 94 -2 28.3
20:20 1010 29.83 839 24.78 -1.2 29.9 94 -2 28.4
20:25 1010 29.83 839 24.78 -1.2 29.8 94 -2 28.4
20:30 1010 29.83 839 24.78 -1.2 29.9 94 -2 28.4
20:35 1010 29.83 839 24.78 -1.2 29.9 93 -2.2 28.1
20:40 1010 29.83 840 24.81 -1.3 29.6 92 -2.4 27.7
20:45 1010 29.83 840 24.81 -1.2 29.8 91 -2.6 27.3
20:50 1010 29.83 840 24.81 -1.1 30 89 -2.7 27.1
20:55 1010 29.83 840 24.81 -0.8 30.5 88 -2.5 27.4
21:00 1010 29.83 840 24.81 -0.6 30.9 87 -2.4 27.6
21:05 1011 29.85 840 24.81 -0.6 30.9 89 -2.3 27.9
21:10 1011 29.85 840 24.81 -0.7 30.8 90 -2.1 28.2
21:15 1011 29.85 840 24.81 -0.6 31 89 -2.2 28.1
21:20 1011 29.85 840 24.81 -0.5 31.1 88 -2.2 28.1
21:25 1011 29.85 840 24.81 -0.5 31.1 88 -2.3 27.9
21:30 1011 29.85 840 24.81 -0.5 31.1 88 -2.3 27.9
21:35 1011 29.85 840 24.81 -0.5 31.1 88 -2.3 27.9
21:40 1011 29.85 840 24.81 -0.5 31.1 88 -2.3 27.9
21:45 1011 29.85 840 24.81 -0.5 31 88 -2.3 27.8
21:50 1011 29.85 840 24.81 -0.6 30.9 89 -2.3 27.9
21:55 1011 29.85 840 24.81 -0.9 30.4 91 -2.2 28
22:00 1011 29.85 840 24.81 -1.2 29.8 92 -2.3 27.9
22:05 1011 29.85 840 24.81 -1.4 29.6 92 -2.4 27.6
22:10 1011 29.85 840 24.81 -1.5 29.4 93 -2.5 27.5
22:15 1011 29.85 840 24.81 -1.6 29.1 92 -2.7 27.2
22:20 1011 29.85 840 24.81 -1.7 28.9 92 -2.8 26.9
22:25 1011 29.85 840 24.81 -1.7 29 92 -2.8 27
22:30 1011 29.85 840 24.81 -1.7 28.9 92 -2.8 26.9
22:35 1011 29.85 840 24.81 -1.8 28.8 93 -2.8 27
22:40 1011 29.85 840 24.81 -1.6 29.2 92 -2.7 27.1
22:45 1011 29.85 840 24.81 -1.5 29.3 92 -2.7 27.2
22:50 1011 29.85 841 24.83 -1.6 29.2 92 -2.7 27.1
22:55 1011 29.85 841 24.83 -1.5 29.4 92 -2.6 27.3
23:00 1011 29.85 841 24.83 -1.3 29.6 91 -2.6 27.3
23:05 1011 29.85 841 24.83 -1.5 29.3 92 -2.7 27.1
23:10 1011 29.85 841 24.83 -1.6 29.1 92 -2.8 27
23:15 1012 29.88 841 24.83 -1.8 28.8 92 -2.9 26.8
23:20 1012 29.88 841 24.83 -1.7 28.9 93 -2.8 27
23:25 1012 29.88 841 24.83 -1.5 29.2 92 -2.7 27.2
23:30 1012 29.88 841 24.83 -1.6 29.2 91 -2.9 26.9
23:35 1012 29.88 841 24.83 -1.7 28.9 91 -3 26.6
23:40 1012 29.88 841 24.83 -1.9 28.6 91 -3.1 26.4
23:45 1012 29.88 841 24.83 -2 28.4 91 -3.3 26
23:50 1012 29.88 841 24.83 -2.3 27.9 92 -3.5 25.8
23:55 1012 29.88 841 24.83 -2.3 27.8 92 -3.5 25.7
24:00 1012 29.88 841 24.83 -2.2 28.1 92 -3.3 26